Time;durP1;ratioP1;P1;durP2;ratioP2;P2;SDS_P1;SDS_P2;PMS_P1;PMS_P2;Temp;Humidity;BMP_temperature;BMP_pressure;BME280_temperature;BME280_humidity;BME280_pressure;Samples;Min_cycle;Max_cycle;Signal;HPM_P1;HPM_P2
2022/02/10 00:17:01;;;;;;;38.60;18.83;;;;;;;13.92;51.67;101458.63;5042230;28;20064;-81
2022/02/10 00:23:05;;;;;;;36.67;16.13;;;;;;;13.72;51.51;101427.75;5045615;28;20064;-81
2022/02/10 00:38:22;;;;;;;26.67;12.63;;;;;;;13.33;55.19;101449.84;5023715;28;20107;-77
2022/02/10 00:40:49;;;;;;;29.97;11.77;;;;;;;13.24;56.04;101466.41;5021875;28;20144;-76
2022/02/10 00:43:15;;;;;;;29.40;14.60;;;;;;;13.19;56.20;101463.53;5015574;28;20469;-76
2022/02/10 00:45:43;;;;;;;28.03;11.03;;;;;;;13.17;56.18;101454.56;5037082;28;20092;-75
2022/02/10 00:48:11;;;;;;;26.57;14.47;;;;;;;13.12;56.44;101460.16;5020097;28;20092;-77
2022/02/10 00:50:43;;;;;;;26.17;13.77;;;;;;;13.12;56.26;101460.16;5020878;28;20133;-75
2022/02/10 00:53:23;;;;;;;32.37;14.03;;;;;;;13.05;55.74;101421.13;5021708;28;20129;-80
2022/02/10 00:55:50;;;;;;;29.27;13.65;;;;;;;13.35;55.18;101451.25;5021170;28;20076;-77
2022/02/10 00:58:26;;;;;;;35.47;14.13;;;;;;;13.23;55.85;101454.31;5016575;28;20529;-78
2022/02/10 01:30:26;;;;;;;29.93;10.27;;;;;;;12.53;58.08;101394.88;5024680;28;20516;-78
2022/02/10 01:32:57;;;;;;;15.27;7.97;;;;;;;12.30;58.74;101384.13;5048088;28;20038;-82
2022/02/10 01:35:25;;;;;;;23.83;10.73;;;;;;;12.29;59.75;101410.44;5050888;28;20046;-82
2022/02/10 01:37:52;;;;;;;18.23;11.40;;;;;;;12.11;60.10;101380.94;5055184;28;20033;-83
2022/02/10 02:05:15;;;;;;;21.27;11.47;;;;;;;11.84;61.78;101381.88;5026451;28;20111;-75
2022/02/10 02:07:42;;;;;;;18.93;10.77;;;;;;;11.89;61.67;101400.66;5018223;28;20137;-78
2022/02/10 02:10:08;;;;;;;31.47;14.07;;;;;;;11.67;61.54;101363.53;5026837;28;20131;-85
2022/02/10 02:12:35;;;;;;;15.10;8.87;;;;;;;11.80;61.61;101374.28;5030547;28;20056;-87
2022/02/10 02:15:02;;;;;;;25.63;9.03;;;;;;;11.89;61.74;101388.63;5033369;28;20080;-88
2022/02/10 02:17:29;;;;;;;17.53;9.40;;;;;;;11.64;62.53;101370.50;5031041;28;20077;-76
2022/02/10 02:19:56;;;;;;;12.50;6.97;;;;;;;11.63;63.13;101392.06;5034500;28;20073;-77
2022/02/10 02:22:23;;;;;;;20.53;5.93;;;;;;;11.55;63.38;101389.72;5020545;28;20439;-80
2022/02/10 02:24:49;;;;;;;13.23;8.17;;;;;;;11.52;63.13;101389.41;5028606;28;20069;-80
2022/02/10 02:27:18;;;;;;;16.03;8.43;;;;;;;11.43;63.76;101382.66;5018697;28;20129;-79
2022/02/10 02:29:55;;;;;;;6.77;5.70;;;;;;;11.36;63.75;101385.66;5023784;28;20150;-79
2022/02/10 02:32:32;;;;;;;25.50;9.23;;;;;;;11.32;63.86;101390.09;5022370;28;20053;-78
2022/02/10 02:35:51;;;;;;;18.50;8.93;;;;;;;11.30;63.87;101383.91;5026186;28;20455;-77
2022/02/10 02:38:11;;;;;;;21.90;10.30;;;;;;;11.05;64.27;101356.56;5023127;28;20096;-85
2022/02/10 03:05:41;;;;;;;19.77;10.40;;;;;;;11.12;64.77;101351.59;5027195;28;20073;-78
2022/02/10 03:08:17;;;;;;;12.13;4.93;;;;;;;11.17;64.70;101350.81;5018480;28;20548;-74
2022/02/10 03:16:29;;;;;;;9.83;5.40;;;;;;;11.27;63.96;101336.91;5016819;28;20508;-82
2022/02/10 04:16:39;;;;;;;16.27;7.13;;;;;;;11.33;62.55;101355.44;5018924;28;20049;-79
2022/02/10 04:30:10;;;;;;;23.40;11.67;;;;;;;11.32;61.79;101336.97;5024114;28;20084;-78
2022/02/10 05:34:17;;;;;;;15.90;10.93;;;;;;;11.00;61.49;101317.38;5015081;28;20157;-73
2022/02/10 05:36:46;;;;;;;14.07;9.30;;;;;;;11.29;61.69;101363.50;5014408;28;20046;-73
2022/02/10 05:39:21;;;;;;;15.07;9.03;;;;;;;11.22;61.71;101359.25;5030268;28;20080;-72
2022/02/10 05:50:21;;;;;;;10.97;8.57;;;;;;;10.95;62.40;101336.91;5017308;28;20125;-71
2022/02/10 06:51:58;;;;;;;7.10;5.63;;;;;;;10.83;61.91;101353.81;5023943;28;20071;-69
2022/02/10 09:01:02;;;;;;;24.13;8.70;;;;;;;13.55;54.74;101474.88;5026773;28;20079;-71
2022/02/10 10:02:32;;;;;;;18.10;8.43;;;;;;;16.69;46.51;101458.75;5053785;28;20038;-69
2022/02/10 10:05:13;;;;;;;14.32;5.97;;;;;;;16.94;45.89;101485.00;5048495;28;20057;-70
2022/02/10 10:15:47;;;;;;;15.93;9.30;;;;;;;17.56;44.85;101494.31;5020301;28;20132;-69
2022/02/10 10:52:08;;;;;;;30.02;12.65;;;;;;;18.87;42.15;101475.44;5016124;28;20149;-70
2022/02/10 10:54:49;;;;;;;10.77;6.18;;;;;;;18.52;42.69;101481.75;5020361;28;20480;-69
2022/02/10 10:57:39;;;;;;;15.48;7.88;;;;;;;17.98;43.31;101475.63;5021030;28;20478;-70
2022/02/10 11:00:54;;;;;;;21.40;10.57;;;;;;;17.82;43.67;101474.22;5025780;28;20132;-70
2022/02/10 11:37:19;;;;;;;14.23;5.53;;;;;;;20.55;39.69;101467.78;5019507;28;20073;-71
2022/02/10 11:40:14;;;;;;;16.20;8.35;;;;;;;20.81;39.20;101472.72;5018828;28;20083;-71
2022/02/10 11:42:52;;;;;;;15.30;8.45;;;;;;;21.35;38.90;101479.09;5023369;28;20049;-70
2022/02/10 12:36:55;;;;;;;12.77;7.13;;;;;;;28.67;29.41;101444.22;5025952;28;20556;-71
2022/02/10 12:40:20;;;;;;;13.32;6.38;;;;;;;29.32;28.49;101467.13;5020466;28;20927;-70
2022/02/10 13:23:22;;;;;;;18.13;4.88;;;;;;;26.02;28.55;101419.91;5034331;28;20124;-68
2022/02/10 13:31:57;;;;;;;15.85;5.45;;;;;;;26.65;28.09;101380.75;5021739;28;20519;-69
2022/02/10 14:13:15;;;;;;;16.35;5.10;;;;;;;21.15;33.67;101371.75;5020312;28;20077;-68
2022/02/10 14:26:49;;;;;;;18.77;4.38;;;;;;;21.09;34.15;101361.72;5027683;28;20518;-68
2022/02/10 14:28:49;;;;;;;16.42;5.18;;;;;;;20.89;34.67;101354.66;5022791;28;20129;-69
2022/02/10 14:31:16;;;;;;;12.65;5.30;;;;;;;20.84;34.63;101358.50;5022886;28;20053;-69
2022/02/10 14:33:45;;;;;;;10.95;4.13;;;;;;;20.73;34.77;101362.81;5022048;28;20163;-71
2022/02/10 15:16:20;;;;;;;12.85;3.97;;;;;;;19.62;36.71;101326.72;5021403;28;20092;-69
2022/02/10 16:17:26;;;;;;;15.65;4.20;;;;;;;19.33;38.32;101337.66;5021851;28;20065;-71
2022/02/10 16:19:54;;;;;;;10.25;4.32;;;;;;;19.36;38.16;101334.19;5025604;28;20172;-70
2022/02/10 16:22:25;;;;;;;10.15;3.97;;;;;;;19.37;38.45;101336.69;5025416;28;20132;-69
2022/02/10 16:25:00;;;;;;;11.23;4.25;;;;;;;19.30;38.61;101335.47;5023557;28;20080;-71
2022/02/10 16:27:32;;;;;;;9.40;4.07;;;;;;;19.09;38.22;101323.78;5022515;28;20045;-71
2022/02/10 16:30:04;;;;;;;10.18;4.30;;;;;;;19.10;38.55;101331.94;5021596;28;20132;-72
2022/02/10 16:32:36;;;;;;;13.05;4.68;;;;;;;19.14;38.69;101337.81;5025275;28;20069;-71
2022/02/10 16:35:09;;;;;;;8.68;4.07;;;;;;;19.08;38.69;101322.97;5017214;28;20079;-70
2022/02/10 16:37:44;;;;;;;12.25;4.43;;;;;;;19.07;38.74;101345.91;5036810;28;20049;-70
2022/02/10 16:40:17;;;;;;;13.75;4.43;;;;;;;18.99;39.27;101341.84;5010975;28;20053;-71
2022/02/10 16:42:50;;;;;;;16.40;5.07;;;;;;;18.97;39.17;101338.50;5022281;28;20749;-71
2022/02/10 16:45:23;;;;;;;12.90;4.38;;;;;;;18.56;39.36;101281.94;5032130;28;20050;-70
2022/02/10 16:47:55;;;;;;;13.52;4.47;;;;;;;18.87;38.87;101348.06;5021243;28;20072;-69
2022/02/10 16:50:27;;;;;;;9.02;4.13;;;;;;;18.65;39.37;101334.63;5020521;28;20059;-69
2022/02/10 16:53:04;;;;;;;11.48;4.95;;;;;;;18.65;39.51;101362.94;5019885;28;20057;-69
2022/02/10 16:55:44;;;;;;;15.63;4.70;;;;;;;18.55;39.45;101351.84;5018021;28;20057;-68
2022/02/10 16:58:41;;;;;;;8.32;3.58;;;;;;;18.19;39.34;101295.19;5024379;28;20148;-70
2022/02/10 17:04:42;;;;;;;14.75;5.07;;;;;;;18.61;39.36;101375.22;5011011;28;20049;-71
2022/02/10 17:28:46;;;;;;;11.15;5.70;;;;;;;18.12;40.28;101351.28;5027565;28;20132;-70
2022/02/10 17:36:34;;;;;;;15.73;5.55;;;;;;;18.20;40.49;101391.00;5025415;28;20144;-70
2022/02/10 17:45:36;;;;;;;14.27;4.70;;;;;;;18.03;40.94;101404.88;5027536;28;20080;-70
2022/02/10 17:53:01;;;;;;;10.77;4.95;;;;;;;17.57;41.52;101353.94;5031986;28;20148;-70
2022/02/10 17:55:29;;;;;;;8.23;4.00;;;;;;;17.76;41.42;101392.34;5032010;28;20535;-71
2022/02/10 17:57:56;;;;;;;8.68;4.70;;;;;;;17.69;41.53;101391.88;5028819;28;20111;-70
2022/02/10 18:00:25;;;;;;;10.03;4.17;;;;;;;17.57;42.22;101390.66;5030568;28;20140;-70
2022/02/10 18:02:59;;;;;;;12.15;4.50;;;;;;;17.35;41.97;101344.16;5034988;28;20053;-70
2022/02/10 18:08:02;;;;;;;12.27;5.07;;;;;;;17.45;41.90;101382.69;5051126;28;20026;-71
2022/02/10 18:13:26;;;;;;;13.57;6.05;;;;;;;17.40;42.36;101388.38;5040916;28;20050;-70
2022/02/10 18:15:58;;;;;;;15.07;4.43;;;;;;;17.26;42.32;101377.91;5048515;28;20065;-70
2022/02/10 18:18:39;;;;;;;15.30;5.03;;;;;;;17.31;42.95;101387.41;5050461;28;20063;-71
2022/02/10 18:21:25;;;;;;;15.65;5.65;;;;;;;17.21;42.77;101389.25;5049319;28;20029;-72
2022/02/10 18:29:19;;;;;;;15.23;5.63;;;;;;;17.03;43.46;101393.75;5022028;28;20049;-70
2022/02/10 19:10:20;;;;;;;20.77;6.07;;;;;;;16.55;45.72;101409.88;5016695;28;20477;-70
2022/02/10 19:12:52;;;;;;;14.17;6.37;;;;;;;16.58;45.36;101412.91;5019192;28;20086;-70
2022/02/10 19:15:24;;;;;;;16.27;6.20;;;;;;;16.63;45.55;101417.66;5021089;28;20053;-70
2022/02/10 19:17:52;;;;;;;15.33;6.10;;;;;;;16.57;45.47;101407.56;5020966;28;20507;-71
2022/02/10 19:20:21;;;;;;;16.80;6.83;;;;;;;16.64;45.94;101413.69;5017607;28;20096;-71
2022/02/10 19:22:48;;;;;;;16.73;7.30;;;;;;;16.57;45.97;101407.56;5023195;28;20481;-71
2022/02/10 19:25:16;;;;;;;24.60;9.67;;;;;;;16.40;46.10;101385.47;5015963;28;20041;-69
2022/02/10 19:27:44;;;;;;;19.40;9.83;;;;;;;16.45;46.48;101393.91;5015640;28;20102;-70
2022/02/10 19:30:13;;;;;;;21.20;9.07;;;;;;;16.59;46.19;101406.13;5018363;28;20057;-69
2022/02/10 19:32:45;;;;;;;18.03;7.50;;;;;;;16.59;46.39;101416.56;5018711;28;20136;-70
2022/02/10 19:35:15;;;;;;;23.90;7.43;;;;;;;16.63;46.22;101419.63;5019841;28;20128;-70
2022/02/10 19:37:42;;;;;;;20.10;8.00;;;;;;;16.69;45.85;101424.91;5019816;28;20154;-70
2022/02/10 19:40:10;;;;;;;21.50;8.67;;;;;;;16.72;45.95;101423.47;5026397;28;20136;-71
2022/02/10 19:42:41;;;;;;;20.57;8.27;;;;;;;16.62;46.17;101399.06;5023405;28;20132;-70
2022/02/10 19:45:09;;;;;;;18.03;8.00;;;;;;;16.75;46.25;101426.56;5022114;28;20073;-69
2022/02/10 19:47:38;;;;;;;23.43;8.03;;;;;;;16.61;46.59;101407.78;5018537;28;20124;-71
2022/02/10 19:50:13;;;;;;;18.23;8.07;;;;;;;16.65;46.83;101412.56;5020662;28;20605;-70
2022/02/10 19:52:43;;;;;;;29.20;7.77;;;;;;;16.72;46.52;101427.13;5025041;28;20083;-69
2022/02/10 19:55:16;;;;;;;27.13;7.63;;;;;;;16.74;46.47;101430.50;5023053;28;20049;-69
2022/02/10 19:57:43;;;;;;;20.57;7.97;;;;;;;16.71;46.64;101433.91;5026015;28;20057;-70
2022/02/10 20:00:17;;;;;;;22.30;7.07;;;;;;;16.53;46.95;101395.22;5021178;28;20149;-71
2022/02/10 20:02:44;;;;;;;28.57;8.63;;;;;;;16.70;46.79;101423.75;5019370;28;20124;-72
2022/02/10 20:05:21;;;;;;;18.97;8.53;;;;;;;16.65;47.12;101421.00;5020727;28;20396;-70
2022/02/10 20:07:51;;;;;;;23.07;8.60;;;;;;;16.70;47.01;101426.59;5016450;28;20131;-69
2022/02/10 20:10:18;;;;;;;;;;;;;;;16.65;46.77;101423.84;5020496;28;20081;-69
2022/02/10 20:12:45;;;;;;;15.33;7.17;;;;;;;16.71;47.02;101424.59;5022879;28;19921;-68
2022/02/10 20:15:14;;;;;;;22.63;8.67;;;;;;;16.70;47.27;101429.41;5016117;28;20108;-69
2022/02/10 20:17:42;;;;;;;24.03;8.60;;;;;;;16.69;47.28;101426.91;5018929;28;20061;-70
2022/02/10 20:20:11;;;;;;;18.27;7.67;;;;;;;16.69;47.18;101422.09;5013092;28;20172;-69
2022/02/10 20:22:41;;;;;;;;;;;;;;;16.66;47.05;101417.06;5022054;28;20045;-69
2022/02/10 20:25:28;;;;;;;19.30;8.30;;;;;;;16.59;46.91;101391.19;5019027;28;19925;-74
2022/02/10 20:27:55;;;;;;;23.87;9.00;;;;;;;16.83;46.95;101416.59;5022376;28;20049;-72
2022/02/10 20:30:34;;;;;;;20.50;8.73;;;;;;;16.85;46.81;101416.28;5024907;28;20496;-69
2022/02/10 20:33:01;;;;;;;18.27;7.63;;;;;;;16.62;47.60;101393.41;5022227;28;20049;-71
2022/02/10 20:35:28;;;;;;;23.73;7.37;;;;;;;16.66;47.61;101414.22;5049036;28;20034;-72
2022/02/10 20:38:00;;;;;;;19.17;7.47;;;;;;;16.57;48.26;101408.41;5043548;28;20038;-72
2022/02/10 20:40:27;;;;;;;22.27;7.47;;;;;;;16.31;48.21;101371.22;5026813;28;20081;-73
2022/02/10 20:43:02;;;;;;;17.63;7.30;;;;;;;16.50;48.70;101412.72;5027970;28;20136;-75
2022/02/10 20:45:30;;;;;;;24.80;7.97;;;;;;;16.46;48.63;101391.91;5026680;28;20467;-72
2022/02/10 20:47:57;;;;;;;19.37;7.03;;;;;;;16.44;48.81;101391.38;5030248;28;20077;-73
2022/02/10 20:50:24;;;;;;;27.90;9.10;;;;;;;16.43;49.04;101401.81;5020918;28;20041;-77
2022/02/10 20:52:51;;;;;;;22.73;8.57;;;;;;;16.33;48.92;101379.38;5026000;28;20113;-81
2022/02/10 20:55:19;;;;;;;15.97;7.00;;;;;;;16.50;49.07;101398.63;5027851;28;20171;-80
2022/02/10 20:57:50;;;;;;;24.73;7.77;;;;;;;16.54;48.68;101403.34;5029559;28;20141;-84
2022/02/10 21:00:19;;;;;;;26.27;8.97;;;;;;;16.33;48.92;101385.84;5032586;28;20113;-80
2022/02/10 21:02:47;;;;;;;20.90;8.73;;;;;;;16.44;49.34;101409.13;5027295;28;20197;-76
2022/02/10 21:05:29;;;;;;;22.30;10.47;;;;;;;15.97;48.91;101343.13;5016314;28;20050;-81
2022/02/10 21:08:07;;;;;;;25.63;9.40;;;;;;;16.42;49.10;101413.41;5029148;28;20076;-78
2022/02/10 21:10:36;;;;;;;23.10;11.10;;;;;;;16.19;48.83;101384.88;5025682;28;20137;-78
2022/02/10 21:13:06;;;;;;;28.10;10.37;;;;;;;16.28;48.86;101402.81;5026343;28;20475;-77
2022/02/10 21:15:45;;;;;;;22.23;11.77;;;;;;;16.38;48.86;101420.78;5024189;28;20388;-78
2022/02/10 21:18:14;;;;;;;28.57;10.30;;;;;;;16.46;48.59;101437.84;5020135;28;20140;-74
2022/02/10 21:20:44;;;;;;;20.23;9.97;;;;;;;16.48;48.68;101431.94;5026679;28;20449;-75
2022/02/10 21:23:26;;;;;;;23.98;9.63;;;;;;;16.46;48.96;101435.03;5023810;28;20057;-77
2022/02/10 21:25:55;;;;;;;24.90;10.87;;;;;;;16.43;49.24;101437.63;5024095;28;20497;-76
2022/02/10 21:28:30;;;;;;;37.35;13.82;;;;;;;16.41;49.50;101434.25;5031977;28;20041;-79
2022/02/10 21:31:01;;;;;;;38.67;15.57;;;;;;;16.21;49.21;101418.41;5035072;28;20042;-77
2022/02/10 21:38:37;;;;;;;39.93;15.33;;;;;;;16.38;49.13;101454.59;5027257;28;20136;-78
2022/02/10 22:17:01;;;;;;;33.00;15.03;;;;;;;16.27;48.92;101462.28;5027840;28;20504;-78
2022/02/10 22:19:37;;;;;;;33.83;14.53;;;;;;;16.27;49.27;101463.16;5016910;28;20128;-78
2022/02/10 22:22:10;;;;;;;31.70;15.60;;;;;;;16.27;49.22;101462.28;5029473;28;20133;-77
2022/02/10 22:24:37;;;;;;;29.93;15.07;;;;;;;15.95;49.37;101401.75;5018810;28;20049;-77
2022/02/10 22:27:08;;;;;;;25.13;13.80;;;;;;;16.16;49.21;101427.75;5019768;28;20136;-79
2022/02/10 22:29:48;;;;;;;25.30;13.10;;;;;;;16.05;49.35;101423.34;5030934;28;20085;-78
2022/02/10 22:33:17;;;;;;;;;;;;;;;15.90;49.76;101443.19;5028230;28;20124;-73
2022/02/10 22:35:02;;;;;;;39.80;14.90;;;;;;;15.93;50.18;101443.47;5020944;28;20413;-74
2022/02/10 22:37:30;;;;;;;34.10;17.27;;;;;;;15.98;49.90;101446.22;5028354;28;20084;-75
2022/02/10 22:39:57;;;;;;;29.07;13.00;;;;;;;15.93;49.79;101431.34;5030015;28;20136;-74
2022/02/10 22:42:44;;;;;;;29.67;15.70;;;;;;;15.90;49.87;101415.88;5030920;28;20516;-76
2022/02/10 22:45:13;;;;;;;28.53;13.53;;;;;;;16.17;50.01;101448.28;5027140;28;20108;-73
2022/02/10 22:47:40;;;;;;;24.77;13.27;;;;;;;16.10;49.94;101424.16;5014469;28;20081;-75
2022/02/10 22:50:07;;;;;;;42.53;16.40;;;;;;;16.25;49.65;101430.75;5019221;28;20132;-74
2022/02/10 22:52:34;;;;;;;32.00;14.30;;;;;;;16.32;49.76;101451.81;5017358;28;20180;-74
2022/02/10 22:55:01;;;;;;;34.60;13.97;;;;;;;16.41;49.61;101448.34;5023789;28;20142;-74
2022/02/10 22:57:28;;;;;;;30.43;15.30;;;;;;;16.34;49.89;101420.50;5022751;28;20152;-74
2022/02/10 22:59:58;;;;;;;40.30;15.30;;;;;;;16.42;49.84;101441.59;5022838;28;20121;-74
2022/02/10 23:02:26;;;;;;;42.05;15.30;;;;;;;16.34;49.76;101427.00;5029495;28;20136;-74
2022/02/10 23:04:53;;;;;;;26.90;14.00;;;;;;;16.39;50.17;101439.34;5035331;28;20148;-73
2022/02/10 23:07:21;;;;;;;39.27;14.13;;;;;;;16.27;50.23;101443.44;5053390;28;20042;-72
2022/02/10 23:10:31;;;;;;;35.10;13.80;;;;;;;16.19;50.63;101434.75;5027051;28;20053;-74
2022/02/10 23:12:41;;;;;;;32.57;14.37;;;;;;;16.11;50.58;101439.06;5014051;28;20050;-75
2022/02/10 23:15:08;;;;;;;29.87;13.43;;;;;;;16.06;50.73;101439.09;5030429;28;20168;-74
2022/02/10 23:17:36;;;;;;;28.90;12.77;;;;;;;16.00;51.22;101445.91;5024030;28;20125;-75
2022/02/10 23:20:04;;;;;;;22.77;11.83;;;;;;;15.95;51.36;101429.91;5028804;28;20049;-74
2022/02/10 23:22:31;;;;;;;27.80;11.80;;;;;;;15.93;51.46;101435.03;5019779;28;20082;-75
2022/02/10 23:24:58;;;;;;;27.40;12.73;;;;;;;15.78;51.52;101424.69;5030737;28;20197;-75
2022/02/10 23:27:26;;;;;;;31.00;12.27;;;;;;;15.61;51.92;101402.56;5016473;28;20092;-76
2022/02/10 23:29:53;;;;;;;27.67;13.33;;;;;;;15.84;51.59;101429.16;5015641;28;20049;-76
2022/02/10 23:32:20;;;;;;;27.27;11.60;;;;;;;15.61;51.93;101398.91;5029883;28;20076;-77
2022/02/10 23:34:47;;;;;;;21.27;12.10;;;;;;;15.75;51.93;101430.09;5026470;28;20137;-83
2022/02/10 23:37:14;;;;;;;19.20;10.67;;;;;;;15.52;52.00;101395.03;5019389;28;20501;-82
2022/02/10 23:39:45;;;;;;;22.63;12.00;;;;;;;15.78;52.03;101430.34;5030007;28;20485;-81
2022/02/10 23:42:26;;;;;;;33.23;11.83;;;;;;;15.74;51.82;101414.34;5016852;28;20390;-81
2022/02/10 23:44:53;;;;;;;28.53;12.13;;;;;;;15.72;51.98;101413.78;5051332;28;20081;-79
2022/02/10 23:47:23;;;;;;;33.50;13.50;;;;;;;15.80;52.16;101435.69;5024033;28;20131;-83
2022/02/10 23:49:51;;;;;;;;;;;;;;;15.71;52.02;101427.00;5025534;28;20501;-78
2022/02/10 23:52:20;;;;;;;26.83;11.63;;;;;;;15.84;51.77;101422.69;5027489;28;19921;-78
2022/02/10 23:54:52;;;;;;;31.80;12.10;;;;;;;15.87;51.50;101422.09;5019475;28;20111;-77
2022/02/10 23:57:34;;;;;;;28.43;12.53;;;;;;;15.94;51.60;101433.03;5027106;28;20083;-82
